Terminal Aerodrome Forecast
Issued by NWS

Home | Current Version | Previous Version | Text Only | Print | Product List | Glossary Off
Versions: 1 2 3 4 5 6 7 8 9 10 11 12 13 14

100
FTUS43 KMPX 221739
TAFAXN
TAF
KAXN 221739Z 2218/2318 30010KT P6SM BKN045 BKN080
     FM230200 33004KT P6SM BKN070
     FM230900 35004KT 6SM -RA BR OVC015=

USA.gov is the U.S. government's official web portal to all federal, state and local government web resources and services.